createdAt,value
2023-05-14T00:01:48.810Z,39.33
2023-05-14T00:04:19.609Z,39.90
2023-05-14T00:06:47.732Z,41.35
2023-05-14T00:09:15.794Z,41.47
2023-05-14T00:11:43.853Z,40.63
2023-05-14T00:14:11.817Z,40.97
2023-05-14T00:16:39.942Z,39.88
2023-05-14T00:19:08.410Z,40.67
2023-05-14T00:21:37.802Z,40.70
2023-05-14T00:24:06.532Z,40.58
2023-05-14T00:26:34.758Z,41.05
2023-05-14T00:29:02.674Z,39.97
2023-05-14T00:31:30.711Z,40.80
2023-05-14T00:33:58.975Z,41.47
2023-05-14T00:36:27.057Z,43.58
2023-05-14T00:38:56.400Z,41.03
2023-05-14T00:41:24.872Z,41.05
2023-05-14T00:43:52.932Z,41.50
2023-05-14T00:46:21.151Z,40.85
2023-05-14T00:48:49.211Z,39.90
2023-05-14T00:51:17.358Z,40.50
2023-05-14T00:53:45.368Z,40.42
2023-05-14T00:56:15.123Z,41.55
2023-05-14T00:58:43.159Z,43.22
2023-05-14T01:01:12.192Z,41.53
2023-05-14T01:03:40.340Z,40.90
2023-05-14T01:06:12.389Z,41.55
2023-05-14T01:08:48.211Z,41.10
2023-05-14T01:11:21.506Z,40.63
2023-05-14T01:13:58.410Z,40.85
2023-05-14T01:16:28.383Z,42.72
2023-05-14T01:18:57.970Z,40.15
2023-05-14T01:21:35.267Z,42.28
2023-05-14T01:24:03.572Z,41.42
2023-05-14T01:26:32.379Z,40.70
2023-05-14T01:29:15.099Z,41.40
2023-05-14T01:31:45.517Z,41.67
2023-05-14T01:34:14.189Z,41.92
2023-05-14T01:36:45.643Z,41.88
2023-05-14T01:39:15.543Z,42.13
2023-05-14T01:41:44.176Z,42.55
2023-05-14T01:44:12.536Z,41.25
2023-05-14T01:46:40.708Z,41.80
2023-05-14T01:49:08.847Z,40.83
2023-05-14T01:51:37.764Z,41.58
2023-05-14T01:54:07.271Z,40.58
2023-05-14T01:56:35.316Z,42.00
2023-05-14T01:59:03.478Z,41.33
2023-05-14T02:01:31.819Z,43.13
2023-05-14T02:04:01.108Z,41.00
2023-05-14T02:06:29.359Z,40.78
2023-05-14T02:08:57.625Z,41.88
2023-05-14T02:11:28.148Z,40.97
2023-05-14T02:13:56.130Z,40.70
2023-05-14T02:16:24.180Z,41.63
2023-05-14T02:18:52.319Z,41.17
2023-05-14T02:21:20.584Z,41.17
2023-05-14T02:23:49.468Z,41.63
2023-05-14T02:26:17.608Z,40.45
2023-05-14T02:28:46.958Z,40.90
2023-05-14T02:31:14.999Z,40.53
2023-05-14T02:33:43.210Z,39.58
2023-05-14T02:36:11.269Z,39.63
2023-05-14T02:38:39.727Z,40.92
2023-05-14T02:41:07.887Z,40.67
2023-05-14T02:43:35.905Z,39.35
2023-05-14T02:46:05.478Z,41.35
2023-05-14T02:48:33.500Z,42.47
2023-05-14T02:51:01.583Z,40.47
2023-05-14T02:53:29.772Z,40.33
2023-05-14T02:55:57.805Z,40.08
2023-05-14T02:58:28.266Z,41.80
2023-05-14T03:00:56.953Z,39.95
2023-05-14T03:03:26.983Z,40.17
2023-05-14T03:05:55.589Z,40.42
2023-05-14T03:08:23.579Z,41.22
2023-05-14T03:10:51.595Z,42.05
2023-05-14T03:13:20.763Z,40.10
2023-05-14T03:15:49.031Z,40.42
2023-05-14T03:18:17.040Z,40.38
2023-05-14T03:20:46.502Z,39.58
2023-05-14T03:23:15.659Z,39.22
2023-05-14T03:25:43.562Z,40.63
2023-05-14T03:28:11.885Z,39.55
2023-05-14T03:30:40.115Z,40.38
2023-05-14T03:33:08.181Z,40.15
2023-05-14T03:35:36.323Z,39.80
2023-05-14T03:38:05.782Z,38.97
2023-05-14T03:40:33.768Z,40.58
2023-05-14T03:43:02.057Z,38.88
2023-05-14T03:45:30.461Z,39.55
2023-05-14T03:47:58.673Z,40.58
2023-05-14T03:50:26.834Z,39.38
2023-05-14T03:52:55.093Z,40.22
2023-05-14T03:55:24.508Z,40.08
2023-05-14T03:57:52.560Z,38.80
2023-05-14T04:00:21.322Z,38.65
2023-05-14T04:02:49.752Z,38.83
2023-05-14T04:05:18.024Z,40.40
2023-05-14T04:07:46.351Z,39.47
2023-05-14T04:10:14.638Z,39.60
2023-05-14T04:12:44.049Z,41.10
2023-05-14T04:15:13.184Z,39.30
2023-05-14T04:17:41.316Z,40.08
2023-05-14T04:20:10.317Z,40.03
2023-05-14T04:22:38.460Z,40.78
2023-05-14T04:25:07.219Z,38.95
2023-05-14T04:27:35.372Z,39.30
2023-05-14T04:30:06.521Z,40.15
2023-05-14T04:32:34.811Z,38.42
2023-05-14T04:35:04.142Z,39.30
2023-05-14T04:37:33.030Z,39.58
2023-05-14T04:40:01.803Z,38.15
2023-05-14T04:42:29.912Z,38.22
2023-05-14T04:44:57.944Z,38.25
2023-05-14T04:47:27.615Z,38.55
2023-05-14T04:49:55.585Z,40.90
2023-05-14T04:52:23.644Z,39.95
2023-05-14T04:54:51.643Z,39.65
2023-05-14T04:57:19.611Z,38.55
2023-05-14T04:59:47.585Z,39.22
2023-05-14T05:02:15.583Z,36.25
2023-05-14T05:04:45.037Z,36.97
2023-05-14T05:07:13.298Z,39.05
2023-05-14T05:09:41.447Z,37.05
2023-05-14T05:12:10.269Z,37.70
2023-05-14T05:14:38.199Z,38.47
2023-05-14T05:17:06.340Z,37.08
2023-05-14T05:19:43.078Z,37.95
2023-05-14T05:22:13.912Z,37.35
2023-05-14T05:24:42.065Z,36.28
2023-05-14T05:27:10.305Z,37.63
2023-05-14T05:29:38.833Z,39.20
2023-05-14T05:32:08.009Z,39.30
2023-05-14T05:34:36.142Z,39.45
2023-05-14T05:37:05.987Z,39.63
2023-05-14T05:39:35.774Z,37.17
2023-05-14T05:42:03.802Z,37.70
2023-05-14T05:44:31.850Z,37.13
2023-05-14T05:46:59.918Z,38.13
2023-05-14T05:49:27.893Z,38.30
2023-05-14T05:51:55.901Z,36.90
2023-05-14T05:54:24.524Z,37.00
2023-05-14T05:56:53.925Z,37.92
2023-05-14T05:59:22.025Z,37.63
2023-05-14T06:01:50.012Z,38.03
2023-05-14T06:04:18.109Z,38.05
2023-05-14T06:06:46.218Z,37.67
2023-05-14T06:09:14.251Z,38.50
2023-05-14T06:11:42.277Z,37.45
2023-05-14T06:14:11.665Z,38.42
2023-05-14T06:16:39.699Z,37.65
2023-05-14T06:19:08.474Z,38.42
2023-05-14T06:21:36.546Z,36.45
2023-05-14T06:24:04.744Z,34.63
2023-05-14T06:26:32.781Z,35.30
2023-05-14T06:29:01.108Z,34.45
2023-05-14T06:31:30.579Z,34.15
2023-05-14T06:33:58.731Z,33.72
2023-05-14T06:36:27.036Z,34.08
2023-05-14T06:38:55.017Z,35.85
2023-05-14T06:41:23.177Z,34.83
2023-05-14T06:43:51.085Z,34.47
2023-05-14T06:46:19.133Z,33.63
2023-05-14T06:48:48.577Z,33.47
2023-05-14T06:51:16.628Z,31.88
2023-05-14T06:53:44.448Z,30.95
2023-05-14T06:56:13.607Z,31.73
2023-05-14T06:58:41.720Z,31.52
2023-05-14T07:01:09.794Z,31.02
2023-05-14T07:03:37.797Z,31.65
2023-05-14T07:06:07.822Z,31.92
2023-05-14T07:08:36.107Z,32.75
2023-05-14T07:11:04.265Z,31.90
2023-05-14T07:13:32.262Z,33.17
2023-05-14T07:16:00.499Z,31.67
2023-05-14T07:18:28.877Z,33.10
2023-05-14T07:20:56.932Z,32.70
2023-05-14T07:23:26.425Z,30.95
2023-05-14T07:25:54.421Z,32.17
2023-05-14T07:28:22.379Z,32.42
2023-05-14T07:30:50.415Z,32.17
2023-05-14T07:33:20.834Z,29.85
2023-05-14T07:35:48.807Z,29.00
2023-05-14T07:38:17.133Z,28.27
2023-05-14T07:40:46.543Z,28.30
2023-05-14T07:43:15.539Z,28.58
2023-05-14T07:45:43.646Z,27.73
2023-05-14T07:48:13.727Z,26.27
2023-05-14T07:50:42.020Z,25.65
2023-05-14T07:53:09.875Z,27.52
2023-05-14T07:55:38.156Z,26.33
2023-05-14T07:58:10.567Z,26.48
2023-05-14T08:00:38.819Z,24.77
2023-05-14T08:03:06.868Z,26.65
2023-05-14T08:05:34.960Z,25.23
2023-05-14T08:08:02.941Z,26.33
2023-05-14T08:10:31.262Z,25.15
2023-05-14T08:12:59.330Z,24.75
2023-05-14T08:15:28.814Z,24.90
2023-05-14T08:18:03.455Z,24.80
2023-05-14T08:20:31.729Z,23.35
2023-05-14T08:22:59.748Z,23.88
2023-05-14T08:25:27.958Z,24.23
2023-05-14T08:28:00.610Z,24.77
2023-05-14T08:30:30.076Z,25.15
2023-05-14T08:32:59.263Z,25.83
2023-05-14T08:35:27.528Z,25.60
2023-05-14T08:37:56.956Z,25.30
2023-05-14T08:40:25.277Z,23.67
2023-05-14T08:42:53.684Z,22.88
2023-05-14T08:45:23.240Z,23.42
2023-05-14T08:47:52.929Z,24.08
2023-05-14T08:50:22.995Z,22.67
2023-05-14T08:52:51.794Z,22.08
2023-05-14T08:55:20.391Z,21.88
2023-05-14T08:57:48.656Z,21.90
2023-05-14T09:00:17.021Z,21.17
2023-05-14T09:02:48.112Z,20.77
2023-05-14T09:05:18.561Z,21.35
2023-05-14T09:07:46.662Z,21.77
2023-05-14T09:10:15.423Z,22.38
2023-05-14T09:12:43.563Z,21.80
2023-05-14T09:15:14.249Z,20.73
2023-05-14T09:17:42.422Z,21.27
2023-05-14T09:20:12.151Z,21.17
2023-05-14T09:22:41.715Z,21.35
2023-05-14T09:25:12.306Z,21.10
2023-05-14T09:27:40.505Z,21.38
2023-05-14T09:30:10.121Z,21.40
2023-05-14T09:32:40.123Z,20.88
2023-05-14T09:35:17.607Z,21.90
2023-05-14T09:37:49.258Z,20.88
2023-05-14T09:40:19.420Z,22.05
2023-05-14T09:42:48.225Z,21.38
2023-05-14T09:45:16.881Z,20.52
2023-05-14T09:47:46.150Z,20.83
2023-05-14T09:50:14.368Z,21.42
2023-05-14T09:52:42.604Z,21.42
2023-05-14T09:55:12.101Z,21.60
2023-05-14T09:57:40.115Z,21.05
2023-05-14T10:00:10.267Z,20.80
2023-05-14T10:02:41.321Z,20.33
2023-05-14T10:05:10.416Z,19.92
2023-05-14T10:07:43.008Z,20.10
2023-05-14T10:10:16.794Z,21.48
2023-05-14T10:12:47.849Z,20.45
2023-05-14T10:15:18.965Z,20.17
2023-05-14T10:17:56.860Z,20.13
2023-05-14T10:20:26.635Z,20.33
2023-05-14T10:22:54.782Z,19.42
2023-05-14T10:25:24.403Z,20.20
2023-05-14T10:27:52.396Z,18.73
2023-05-14T10:30:22.958Z,22.98
2023-05-14T10:32:51.078Z,21.30
2023-05-14T10:35:22.197Z,22.33
2023-05-14T10:37:52.692Z,20.83
2023-05-14T10:40:21.492Z,20.55
2023-05-14T10:42:50.843Z,19.65
2023-05-14T10:45:18.762Z,18.88
2023-05-14T10:47:47.934Z,17.33
2023-05-14T10:50:17.694Z,19.00
2023-05-14T10:52:46.685Z,19.52
2023-05-14T10:55:15.720Z,16.75
2023-05-14T10:57:45.119Z,18.40
2023-05-14T11:00:15.663Z,17.33
2023-05-14T11:02:45.118Z,19.15
2023-05-14T11:05:15.915Z,18.70
2023-05-14T11:07:45.768Z,18.50
2023-05-14T11:10:15.023Z,17.52
2023-05-14T11:12:44.307Z,16.50
2023-05-14T11:15:14.958Z,17.70
2023-05-14T11:17:44.207Z,17.65
2023-05-14T11:20:13.653Z,17.38
2023-05-14T11:22:43.355Z,17.65
2023-05-14T11:25:14.479Z,18.60
2023-05-14T11:27:44.671Z,18.10
2023-05-14T11:30:18.666Z,18.92
2023-05-14T11:32:48.539Z,17.67
2023-05-14T11:35:17.276Z,19.00
2023-05-14T11:37:45.329Z,17.90
2023-05-14T11:40:17.010Z,17.92
2023-05-14T11:42:45.048Z,16.13
2023-05-14T11:45:13.325Z,17.27
2023-05-14T11:47:43.616Z,17.23
2023-05-14T11:50:12.200Z,17.23
2023-05-14T11:52:41.392Z,17.08
2023-05-14T11:55:13.222Z,16.45
2023-05-14T11:57:41.942Z,15.38
2023-05-14T12:00:13.494Z,16.67
2023-05-14T12:02:43.089Z,17.67
2023-05-14T12:05:14.231Z,16.75
2023-05-14T12:07:42.248Z,15.73
2023-05-14T12:10:12.882Z,15.73
2023-05-14T12:12:40.735Z,16.55
2023-05-14T12:15:13.355Z,16.20
2023-05-14T12:17:41.295Z,15.60
2023-05-14T12:20:12.296Z,17.83
2023-05-14T12:22:41.309Z,17.02
2023-05-14T12:25:13.466Z,17.45
2023-05-14T12:27:41.499Z,16.83
2023-05-14T12:32:41.726Z,18.17
2023-05-14T12:35:11.381Z,17.27
2023-05-14T12:37:40.009Z,17.05
2023-05-14T12:40:09.669Z,17.77
2023-05-14T12:42:37.905Z,16.35
2023-05-14T12:45:08.544Z,14.82
2023-05-14T12:47:37.482Z,17.02
2023-05-14T12:50:06.563Z,17.38
2023-05-14T12:52:39.144Z,16.45
2023-05-14T12:55:08.833Z,15.90
2023-05-14T12:57:36.760Z,15.38
2023-05-14T13:00:07.017Z,15.43
2023-05-14T13:02:42.516Z,14.40
2023-05-14T13:05:11.461Z,14.30
2023-05-14T13:07:40.794Z,15.07
2023-05-14T13:10:09.921Z,14.75
2023-05-14T13:12:38.768Z,13.95
2023-05-14T13:15:07.673Z,16.60
2023-05-14T13:17:35.603Z,14.75
2023-05-14T13:20:04.694Z,15.27
2023-05-14T13:22:32.563Z,14.13
2023-05-14T13:25:01.781Z,13.27
2023-05-14T13:27:30.424Z,14.23
2023-05-14T13:29:58.256Z,15.30
2023-05-14T13:32:26.814Z,14.23
2023-05-14T13:34:54.753Z,13.32
2023-05-14T13:37:22.699Z,13.07
2023-05-14T13:39:51.505Z,13.95
2023-05-14T13:42:20.893Z,12.63
2023-05-14T13:44:48.845Z,12.23
2023-05-14T13:47:16.787Z,12.30
2023-05-14T13:49:44.690Z,11.18
2023-05-14T13:52:12.536Z,12.02
2023-05-14T13:54:41.926Z,10.60
2023-05-14T13:57:09.848Z,12.02
2023-05-14T13:59:39.124Z,11.10
2023-05-14T14:02:07.303Z,10.38
2023-05-14T14:04:35.514Z,10.98
2023-05-14T14:07:06.007Z,9.82
2023-05-14T14:09:36.025Z,9.52
2023-05-14T14:12:05.005Z,9.85
2023-05-14T14:14:33.194Z,8.77
2023-05-14T14:17:02.571Z,9.63
2023-05-14T14:19:30.489Z,9.13
2023-05-14T14:21:58.477Z,9.57
2023-05-14T14:24:26.318Z,9.25
2023-05-14T14:26:54.149Z,10.02
2023-05-14T14:29:23.810Z,9.63
2023-05-14T14:31:51.843Z,10.07
2023-05-14T14:34:21.165Z,9.45
2023-05-14T14:36:49.058Z,9.23
2023-05-14T14:39:16.949Z,9.32
2023-05-14T14:41:47.713Z,9.82
2023-05-14T14:44:15.652Z,9.57
2023-05-14T14:46:43.943Z,9.30
2023-05-14T14:49:11.883Z,8.40
2023-05-14T14:51:41.138Z,7.75
2023-05-14T14:54:09.101Z,8.25
2023-05-14T14:56:37.044Z,8.10
2023-05-14T14:59:05.021Z,8.60
2023-05-14T15:01:32.990Z,8.15
2023-05-14T15:04:00.948Z,7.90
2023-05-14T15:06:28.985Z,8.45
2023-05-14T15:08:58.966Z,8.57
2023-05-14T15:11:26.912Z,9.05
2023-05-14T15:13:54.844Z,10.85
2023-05-14T15:16:22.832Z,10.85
2023-05-14T15:18:50.851Z,11.32
2023-05-14T15:21:18.739Z,11.48
2023-05-14T15:23:46.910Z,12.18
2023-05-14T15:26:16.158Z,12.77
2023-05-14T15:28:44.266Z,13.23
2023-05-14T15:31:12.159Z,13.27
2023-05-14T15:33:41.733Z,13.75
2023-05-14T15:36:10.020Z,13.13
2023-05-14T15:38:37.879Z,13.25
2023-05-14T15:41:05.836Z,13.38
2023-05-14T15:43:35.109Z,12.50
2023-05-14T15:46:03.023Z,12.13
2023-05-14T15:48:30.976Z,12.45
2023-05-14T15:50:58.928Z,10.77
2023-05-14T15:53:26.921Z,11.68
2023-05-14T15:55:54.815Z,10.20
2023-05-14T15:58:22.700Z,10.27
2023-05-14T16:00:52.018Z,9.60
2023-05-14T16:03:20.043Z,10.07
2023-05-14T16:05:48.606Z,10.18
2023-05-14T16:08:16.547Z,10.18
2023-05-14T16:10:44.415Z,10.65
2023-05-14T16:13:12.283Z,9.70
2023-05-14T16:15:40.901Z,9.63
2023-05-14T16:18:10.231Z,9.73
2023-05-14T16:20:38.123Z,9.48
2023-05-14T16:23:06.095Z,9.90
2023-05-14T16:25:34.001Z,9.77
2023-05-14T16:28:01.960Z,10.45
2023-05-14T16:30:29.819Z,10.18
2023-05-14T16:32:57.735Z,10.48
2023-05-14T16:35:27.132Z,9.35
2023-05-14T16:37:55.448Z,8.73
2023-05-14T16:40:24.098Z,8.73
2023-05-14T16:42:52.281Z,8.43
2023-05-14T16:45:20.205Z,9.93
2023-05-14T16:47:48.061Z,9.55
2023-05-14T16:50:15.935Z,8.80
2023-05-14T16:52:45.170Z,8.98
2023-05-14T16:55:13.063Z,8.95
2023-05-14T16:57:40.975Z,9.68
2023-05-14T17:00:10.460Z,10.07
2023-05-14T17:02:40.694Z,9.68
2023-05-14T17:05:09.477Z,8.52
2023-05-14T17:07:38.431Z,10.23
2023-05-14T17:10:08.864Z,9.85
2023-05-14T17:12:36.866Z,10.02
2023-05-14T17:15:05.563Z,10.10
2023-05-14T17:17:34.012Z,9.20
2023-05-14T17:20:01.945Z,9.35
2023-05-14T17:22:29.859Z,9.52
2023-05-14T17:24:57.706Z,9.40
2023-05-14T17:27:29.222Z,9.40
2023-05-14T17:29:57.068Z,9.25
2023-05-14T17:32:25.020Z,9.00
2023-05-14T17:34:53.015Z,9.18
2023-05-14T17:37:20.964Z,9.63
2023-05-14T17:39:48.970Z,9.85
2023-05-14T17:42:16.861Z,9.38
2023-05-14T17:44:46.189Z,9.73
2023-05-14T17:47:14.115Z,9.23
2023-05-14T17:49:41.980Z,9.35
2023-05-14T17:52:09.859Z,9.38
2023-05-14T17:54:37.701Z,9.45
2023-05-14T17:57:05.794Z,9.13
2023-05-14T17:59:33.927Z,9.88
2023-05-14T18:02:03.252Z,9.88
2023-05-14T18:04:31.124Z,9.27
2023-05-14T18:06:59.087Z,9.52
2023-05-14T18:09:27.010Z,9.43
2023-05-14T18:11:56.926Z,10.00
2023-05-14T18:14:27.398Z,10.20
2023-05-14T18:16:55.965Z,9.70
2023-05-14T18:19:25.364Z,10.10
2023-05-14T18:21:55.483Z,10.43
2023-05-14T18:24:23.438Z,10.10
2023-05-14T18:26:51.411Z,10.82
2023-05-14T18:29:19.276Z,11.02
2023-05-14T18:31:47.227Z,10.68
2023-05-14T18:34:15.112Z,11.30
2023-05-14T18:36:44.440Z,11.38
2023-05-14T18:39:14.399Z,11.38
2023-05-14T18:41:43.294Z,10.73
2023-05-14T18:44:11.131Z,11.35
2023-05-14T18:46:39.229Z,12.07
2023-05-14T18:49:07.319Z,10.55
2023-05-14T18:51:35.209Z,11.85
2023-05-14T18:54:04.629Z,11.40
2023-05-14T18:56:34.874Z,11.32
2023-05-14T18:59:02.774Z,12.15
2023-05-14T19:01:31.435Z,11.98
2023-05-14T19:03:59.443Z,12.70
2023-05-14T19:06:27.499Z,11.88
2023-05-14T19:08:55.777Z,12.60
2023-05-14T19:11:25.230Z,14.25
2023-05-14T19:13:56.186Z,13.60
2023-05-14T19:16:24.401Z,12.68
2023-05-14T19:18:52.422Z,13.35
2023-05-14T19:21:20.424Z,12.88
2023-05-14T19:23:48.390Z,13.65
2023-05-14T19:26:17.503Z,14.18
2023-05-14T19:28:46.772Z,14.27
2023-05-14T19:31:15.721Z,13.85
2023-05-14T19:33:44.550Z,15.55
2023-05-14T19:36:12.537Z,12.98
2023-05-14T19:38:40.441Z,14.23
2023-05-14T19:41:08.372Z,14.43
2023-05-14T19:43:36.272Z,14.30
2023-05-14T19:46:06.371Z,14.02
2023-05-14T19:48:34.450Z,13.68
2023-05-14T19:51:02.384Z,14.80
2023-05-14T19:53:30.605Z,14.05
2023-05-14T19:56:01.970Z,13.63
2023-05-14T19:58:32.842Z,13.75
2023-05-14T20:01:00.894Z,13.70
2023-05-14T20:03:30.712Z,14.23
2023-05-14T20:05:58.670Z,13.85
2023-05-14T20:08:26.543Z,14.18
2023-05-14T20:10:54.445Z,14.48
2023-05-14T20:13:25.000Z,14.30
2023-05-14T20:15:53.339Z,15.38
2023-05-14T20:18:21.177Z,15.63
2023-05-14T20:20:50.449Z,15.73
2023-05-14T20:23:20.694Z,15.02
2023-05-14T20:25:53.597Z,15.70
2023-05-14T20:28:21.555Z,17.20
2023-05-14T20:30:49.556Z,18.48
2023-05-14T20:33:17.543Z,18.40
2023-05-14T20:35:45.659Z,18.50
2023-05-14T20:38:17.970Z,20.58
2023-05-14T20:40:45.934Z,19.75
2023-05-14T20:43:13.855Z,19.98
2023-05-14T20:45:41.774Z,20.90
2023-05-14T20:48:12.055Z,21.10
2023-05-14T20:50:40.089Z,21.70
2023-05-14T20:53:10.669Z,22.30
2023-05-14T20:55:41.122Z,21.42
2023-05-14T20:58:09.082Z,22.13
2023-05-14T21:00:36.976Z,22.42
2023-05-14T21:03:05.237Z,22.45
2023-05-14T21:05:33.613Z,24.42
2023-05-14T21:08:01.542Z,23.58
2023-05-14T21:10:29.495Z,25.02
2023-05-14T21:12:58.872Z,28.35
2023-05-14T21:15:27.349Z,28.77
2023-05-14T21:17:55.456Z,32.38
2023-05-14T21:20:23.388Z,30.58
2023-05-14T21:22:51.243Z,31.77
2023-05-14T21:25:19.209Z,32.40
2023-05-14T21:27:47.248Z,38.47
2023-05-14T21:30:16.943Z,41.45
2023-05-14T21:32:44.875Z,44.33
2023-05-14T21:35:12.912Z,44.38
2023-05-14T21:37:40.883Z,48.47
2023-05-14T21:40:12.341Z,50.40
2023-05-14T21:42:40.794Z,51.38
2023-05-14T21:45:09.382Z,52.72
2023-05-14T21:47:38.913Z,57.55
2023-05-14T21:50:07.722Z,55.80
2023-05-14T21:52:35.834Z,54.88
2023-05-14T21:55:03.754Z,54.50
2023-05-14T21:57:34.316Z,56.40
2023-05-14T22:00:03.469Z,54.22
2023-05-14T22:02:32.141Z,53.25
2023-05-14T22:05:01.504Z,54.47
2023-05-14T22:07:29.610Z,54.70
2023-05-14T22:09:57.520Z,52.83
2023-05-14T22:12:26.221Z,51.58
2023-05-14T22:14:54.168Z,53.70
2023-05-14T22:17:22.680Z,53.42
2023-05-14T22:19:50.687Z,53.58
2023-05-14T22:22:19.904Z,54.70
2023-05-14T22:24:47.852Z,53.13
2023-05-14T22:27:15.690Z,55.67
2023-05-14T22:29:43.589Z,56.28
2023-05-14T22:32:11.492Z,55.05
2023-05-14T22:34:39.392Z,52.88
2023-05-14T22:37:07.340Z,52.17
2023-05-14T22:39:36.721Z,51.90
2023-05-14T22:42:04.878Z,52.05
2023-05-14T22:44:32.792Z,50.03
2023-05-14T22:47:00.733Z,48.13
2023-05-14T22:49:28.638Z,49.05
2023-05-14T22:51:56.538Z,47.38
2023-05-14T22:54:24.468Z,48.47
2023-05-14T22:56:53.709Z,47.88
2023-05-14T22:59:23.581Z,47.97
2023-05-14T23:01:51.821Z,48.00
2023-05-14T23:04:19.745Z,47.78
2023-05-14T23:06:48.285Z,47.50
2023-05-14T23:09:16.213Z,49.95
2023-05-14T23:11:44.160Z,48.50
2023-05-14T23:14:13.545Z,49.50
2023-05-14T23:16:41.437Z,48.25
2023-05-14T23:19:09.610Z,49.60
2023-05-14T23:21:37.686Z,50.00
2023-05-14T23:24:06.237Z,44.35
2023-05-14T23:26:34.411Z,48.75
2023-05-14T23:29:02.321Z,46.38
2023-05-14T23:31:32.210Z,45.15
2023-05-14T23:34:00.170Z,44.38
2023-05-14T23:36:28.043Z,49.05
2023-05-14T23:38:55.970Z,47.10
2023-05-14T23:41:23.796Z,41.05
2023-05-14T23:43:51.696Z,40.50
2023-05-14T23:46:19.605Z,37.45
2023-05-14T23:48:48.942Z,38.47
2023-05-14T23:51:16.776Z,40.10
2023-05-14T23:53:44.630Z,40.17
2023-05-14T23:56:12.878Z,39.90
2023-05-14T23:58:43.261Z,40.65
